Terminal Aerodrome Forecast
Issued by NWS Charleston, WV

Current Version | Previous Version | Graphics & Text | Print | Product List | Glossary On
Versions: 1 2 3 4 5 6 7 8 9 10 11 12 13 14 15 16 17 18 19 20 21 22 23
000
FTUS41 KRLX 150541
TAFBKW
TAF
KBKW 150541Z 1506/1606 15006KT P6SM FEW250
     FM151400 23009KT P6SM FEW070
     FM151600 24011G17KT P6SM FEW025
     FM152300 25009KT P6SM BKN025
     FM160000 26009KT 4SM SHRA BR BKN015
     FM160200 30008G15KT 5SM SHRA BR OVC010
     FM160300 31008G15KT 3SM SHRA BR OVC003
     FM160500 32007KT 5SM BR BKN010=

USA.gov is the U.S. government's official web portal to all federal, state and local government web resources and services.